sensor_id;sensor_type;location;lat;lon;timestamp;pressure;altitude;pressure_sealevel;temperature;humidity
76766;BME280;65707;52.362;6.588;2023-02-03T00:01:07;102282.94;;;9.62;84.87
76766;BME280;65707;52.362;6.588;2023-02-03T00:03:34;102271.66;;;9.58;85.10
76766;BME280;65707;52.362;6.588;2023-02-03T00:06:03;102283.06;;;9.60;84.98
76766;BME280;65707;52.362;6.588;2023-02-03T00:08:30;102283.06;;;9.60;85.01
76766;BME280;65707;52.362;6.588;2023-02-03T00:10:57;102282.69;;;9.65;85.38
76766;BME280;65707;52.362;6.588;2023-02-03T00:13:24;102279.44;;;9.61;84.77
76766;BME280;65707;52.362;6.588;2023-02-03T00:15:51;102290.75;;;9.54;85.48
76766;BME280;65707;52.362;6.588;2023-02-03T00:18:18;102286.00;;;9.57;85.21
76766;BME280;65707;52.362;6.588;2023-02-03T00:20:45;102291.63;;;9.54;85.60
76766;BME280;65707;52.362;6.588;2023-02-03T00:23:13;102295.25;;;9.64;84.56
76766;BME280;65707;52.362;6.588;2023-02-03T00:25:40;102299.53;;;9.56;85.69
76766;BME280;65707;52.362;6.588;2023-02-03T00:28:06;102311.72;;;9.60;84.86
76766;BME280;65707;52.362;6.588;2023-02-03T00:30:34;102322.88;;;9.65;84.77
76766;BME280;65707;52.362;6.588;2023-02-03T00:33:02;102317.03;;;9.71;84.19
76766;BME280;65707;52.362;6.588;2023-02-03T00:35:29;102324.59;;;9.66;85.19
76766;BME280;65707;52.362;6.588;2023-02-03T00:37:56;102323.22;;;9.71;84.41
76766;BME280;65707;52.362;6.588;2023-02-03T00:40:25;102301.22;;;9.68;84.46
76766;BME280;65707;52.362;6.588;2023-02-03T00:42:54;102310.19;;;9.78;84.56
76766;BME280;65707;52.362;6.588;2023-02-03T00:45:21;102308.75;;;9.74;84.69
76766;BME280;65707;52.362;6.588;2023-02-03T00:47:48;102303.25;;;9.75;85.33
76766;BME280;65707;52.362;6.588;2023-02-03T00:50:16;102301.28;;;9.77;84.51
76766;BME280;65707;52.362;6.588;2023-02-03T00:52:42;102303.81;;;9.79;85.25
76766;BME280;65707;52.362;6.588;2023-02-03T00:55:09;102305.53;;;9.80;84.41
76766;BME280;65707;52.362;6.588;2023-02-03T00:57:37;102300.06;;;9.81;83.36
76766;BME280;65707;52.362;6.588;2023-02-03T01:00:05;102313.34;;;9.83;83.63
76766;BME280;65707;52.362;6.588;2023-02-03T01:02:33;102301.88;;;9.81;83.73
76766;BME280;65707;52.362;6.588;2023-02-03T01:05:00;102310.53;;;9.84;83.20
76766;BME280;65707;52.362;6.588;2023-02-03T01:07:26;102306.59;;;9.88;83.77
76766;BME280;65707;52.362;6.588;2023-02-03T01:09:56;102305.75;;;9.88;83.80
76766;BME280;65707;52.362;6.588;2023-02-03T01:12:23;102291.09;;;9.92;83.77
76766;BME280;65707;52.362;6.588;2023-02-03T01:14:51;102277.56;;;9.93;83.28
76766;BME280;65707;52.362;6.588;2023-02-03T01:17:18;102288.91;;;9.97;82.53
76766;BME280;65707;52.362;6.588;2023-02-03T01:19:45;102279.41;;;9.93;82.77
76766;BME280;65707;52.362;6.588;2023-02-03T01:22:12;102297.81;;;9.97;83.18
76766;BME280;65707;52.362;6.588;2023-02-03T01:24:39;102299.63;;;9.97;82.94
76766;BME280;65707;52.362;6.588;2023-02-03T01:27:06;102276.09;;;10.00;82.93
76766;BME280;65707;52.362;6.588;2023-02-03T01:29:32;102270.19;;;10.06;81.46
76766;BME280;65707;52.362;6.588;2023-02-03T01:32:01;102272.81;;;9.97;82.40
76766;BME280;65707;52.362;6.588;2023-02-03T01:34:28;102246.84;;;9.97;81.51
76766;BME280;65707;52.362;6.588;2023-02-03T01:36:55;102243.03;;;10.00;82.16
76766;BME280;65707;52.362;6.588;2023-02-03T01:39:22;102249.13;;;10.02;81.93
76766;BME280;65707;52.362;6.588;2023-02-03T01:41:50;102236.25;;;9.96;82.44
76766;BME280;65707;52.362;6.588;2023-02-03T01:44:40;102241.22;;;10.00;81.46
76766;BME280;65707;52.362;6.588;2023-02-03T01:47:17;102251.31;;;10.08;81.13
76766;BME280;65707;52.362;6.588;2023-02-03T01:49:56;102240.38;;;10.00;81.52
76766;BME280;65707;52.362;6.588;2023-02-03T01:52:32;102226.22;;;9.98;81.64
76766;BME280;65707;52.362;6.588;2023-02-03T01:55:02;102207.44;;;10.09;80.80
76766;BME280;65707;52.362;6.588;2023-02-03T01:57:35;102202.28;;;10.06;80.36
76766;BME280;65707;52.362;6.588;2023-02-03T02:00:06;102202.91;;;10.09;81.12
76766;BME280;65707;52.362;6.588;2023-02-03T02:02:35;102217.56;;;10.05;80.10
76766;BME280;65707;52.362;6.588;2023-02-03T02:05:06;102222.06;;;10.05;80.71
76766;BME280;65707;52.362;6.588;2023-02-03T02:07:40;102223.50;;;10.09;80.33
76766;BME280;65707;52.362;6.588;2023-02-03T02:10:09;102237.66;;;10.11;80.25
76766;BME280;65707;52.362;6.588;2023-02-03T02:12:36;102254.25;;;10.05;81.22
76766;BME280;65707;52.362;6.588;2023-02-03T02:15:04;102238.78;;;10.08;80.70
76766;BME280;65707;52.362;6.588;2023-02-03T02:21:16;102225.97;;;10.01;80.32
76766;BME280;65707;52.362;6.588;2023-02-03T02:27:25;102206.81;;;10.05;79.40
76766;BME280;65707;52.362;6.588;2023-02-03T02:30:34;102208.50;;;10.06;80.07
76766;BME280;65707;52.362;6.588;2023-02-03T02:33:23;102225.94;;;10.12;80.10
76766;BME280;65707;52.362;6.588;2023-02-03T02:36:07;102221.56;;;10.11;79.17
76766;BME280;65707;52.362;6.588;2023-02-03T02:38:49;102220.69;;;10.10;79.54
76766;BME280;65707;52.362;6.588;2023-02-03T02:41:28;102235.69;;;10.13;80.09
76766;BME280;65707;52.362;6.588;2023-02-03T02:44:06;102216.91;;;10.13;78.88
76766;BME280;65707;52.362;6.588;2023-02-03T02:46:42;102220.84;;;10.09;79.19
76766;BME280;65707;52.362;6.588;2023-02-03T02:49:17;102234.09;;;10.10;79.15
76766;BME280;65707;52.362;6.588;2023-02-03T02:51:48;102223.75;;;10.06;79.64
76766;BME280;65707;52.362;6.588;2023-02-03T02:54:19;102199.75;;;10.04;79.18
76766;BME280;65707;52.362;6.588;2023-02-03T02:56:53;102209.28;;;10.08;79.30
76766;BME280;65707;52.362;6.588;2023-02-03T02:59:23;102202.19;;;10.07;80.04
76766;BME280;65707;52.362;6.588;2023-02-03T03:01:49;102205.09;;;10.04;79.59
76766;BME280;65707;52.362;6.588;2023-02-03T03:04:21;102216.09;;;10.01;78.81
76766;BME280;65707;52.362;6.588;2023-02-03T03:06:55;102218.38;;;10.06;79.06
76766;BME280;65707;52.362;6.588;2023-02-03T03:09:32;102215.19;;;10.12;79.06
76766;BME280;65707;52.362;6.588;2023-02-03T03:12:06;102208.88;;;10.13;78.96
76766;BME280;65707;52.362;6.588;2023-02-03T03:14:41;102218.66;;;10.03;78.78
76766;BME280;65707;52.362;6.588;2023-02-03T03:17:17;102202.66;;;10.12;78.85
76766;BME280;65707;52.362;6.588;2023-02-03T03:19:53;102203.50;;;10.13;77.77
76766;BME280;65707;52.362;6.588;2023-02-03T03:22:26;102189.88;;;10.05;78.39
76766;BME280;65707;52.362;6.588;2023-02-03T03:24:59;102196.69;;;10.09;77.84
76766;BME280;65707;52.362;6.588;2023-02-03T03:27:31;102187.41;;;10.13;78.27
76766;BME280;65707;52.362;6.588;2023-02-03T03:30:05;102179.50;;;10.11;77.74
76766;BME280;65707;52.362;6.588;2023-02-03T03:32:37;102185.97;;;10.09;77.97
76766;BME280;65707;52.362;6.588;2023-02-03T03:35:06;102179.25;;;10.14;78.29
76766;BME280;65707;52.362;6.588;2023-02-03T03:37:35;102191.06;;;10.12;77.18
76766;BME280;65707;52.362;6.588;2023-02-03T03:40:09;102197.34;;;10.22;77.21
76766;BME280;65707;52.362;6.588;2023-02-03T03:42:44;102195.47;;;10.13;77.16
76766;BME280;65707;52.362;6.588;2023-02-03T03:45:18;102180.94;;;10.15;76.92
76766;BME280;65707;52.362;6.588;2023-02-03T03:47:53;102165.56;;;10.17;77.28
76766;BME280;65707;52.362;6.588;2023-02-03T03:50:28;102166.41;;;10.18;76.42
76766;BME280;65707;52.362;6.588;2023-02-03T03:53:01;102161.75;;;10.20;77.08
76766;BME280;65707;52.362;6.588;2023-02-03T03:55:33;102160.31;;;10.16;76.59
76766;BME280;65707;52.362;6.588;2023-02-03T03:58:02;102165.25;;;10.11;76.67
76766;BME280;65707;52.362;6.588;2023-02-03T04:00:34;102171.31;;;10.13;76.80
76766;BME280;65707;52.362;6.588;2023-02-03T04:03:09;102175.63;;;10.25;76.46
76766;BME280;65707;52.362;6.588;2023-02-03T04:05:41;102182.38;;;10.19;76.07
76766;BME280;65707;52.362;6.588;2023-02-03T04:08:08;102176.75;;;10.22;75.98
76766;BME280;65707;52.362;6.588;2023-02-03T04:10:36;102182.09;;;10.22;76.12
76766;BME280;65707;52.362;6.588;2023-02-03T04:13:06;102176.47;;;10.25;76.05
76766;BME280;65707;52.362;6.588;2023-02-03T04:15:34;102177.31;;;10.26;75.65
76766;BME280;65707;52.362;6.588;2023-02-03T04:18:01;102190.72;;;10.26;76.54
76766;BME280;65707;52.362;6.588;2023-02-03T04:20:29;102184.97;;;10.30;76.05
76766;BME280;65707;52.362;6.588;2023-02-03T04:22:59;102189.22;;;10.33;76.29
76766;BME280;65707;52.362;6.588;2023-02-03T04:25:25;102184.53;;;10.25;76.21
76766;BME280;65707;52.362;6.588;2023-02-03T04:27:53;102186.63;;;10.22;76.82
76766;BME280;65707;52.362;6.588;2023-02-03T04:30:21;102183.41;;;10.28;75.90
76766;BME280;65707;52.362;6.588;2023-02-03T04:32:48;102180.97;;;10.25;76.47
76766;BME280;65707;52.362;6.588;2023-02-03T04:35:15;102180.56;;;10.29;76.68
76766;BME280;65707;52.362;6.588;2023-02-03T04:37:42;102165.34;;;10.30;75.89
76766;BME280;65707;52.362;6.588;2023-02-03T04:40:11;102164.78;;;10.36;76.59
76766;BME280;65707;52.362;6.588;2023-02-03T04:42:39;102160.00;;;10.39;75.50
76766;BME280;65707;52.362;6.588;2023-02-03T04:45:09;102162.09;;;10.36;75.64
76766;BME280;65707;52.362;6.588;2023-02-03T04:47:37;102167.75;;;10.33;75.70
76766;BME280;65707;52.362;6.588;2023-02-03T04:50:05;102159.03;;;10.40;75.72
76766;BME280;65707;52.362;6.588;2023-02-03T04:52:32;102149.41;;;10.38;75.52
76766;BME280;65707;52.362;6.588;2023-02-03T04:54:59;102153.50;;;10.42;75.82
76766;BME280;65707;52.362;6.588;2023-02-03T04:57:27;102163.00;;;10.46;75.54
76766;BME280;65707;52.362;6.588;2023-02-03T04:59:54;102155.38;;;10.41;75.39
76766;BME280;65707;52.362;6.588;2023-02-03T05:02:23;102168.09;;;10.49;75.31
76766;BME280;65707;52.362;6.588;2023-02-03T05:04:50;102168.97;;;10.59;74.88
76766;BME280;65707;52.362;6.588;2023-02-03T05:07:17;102178.03;;;10.58;74.53
76766;BME280;65707;52.362;6.588;2023-02-03T05:09:44;102171.50;;;10.60;74.81
76766;BME280;65707;52.362;6.588;2023-02-03T05:12:10;102168.41;;;10.55;75.06
76766;BME280;65707;52.362;6.588;2023-02-03T05:14:39;102172.94;;;10.55;75.38
76766;BME280;65707;52.362;6.588;2023-02-03T05:17:05;102165.88;;;10.54;75.34
76766;BME280;65707;52.362;6.588;2023-02-03T05:19:32;102165.59;;;10.57;75.17
76766;BME280;65707;52.362;6.588;2023-02-03T05:21:59;102165.88;;;10.54;74.95
76766;BME280;65707;52.362;6.588;2023-02-03T05:24:26;102158.50;;;10.56;75.53
76766;BME280;65707;52.362;6.588;2023-02-03T05:26:53;102153.41;;;10.53;75.06
76766;BME280;65707;52.362;6.588;2023-02-03T05:29:19;102157.41;;;10.58;75.37
76766;BME280;65707;52.362;6.588;2023-02-03T05:31:48;102152.59;;;10.62;74.82
76766;BME280;65707;52.362;6.588;2023-02-03T05:34:14;102165.31;;;10.60;75.35
76766;BME280;65707;52.362;6.588;2023-02-03T05:36:41;102151.91;;;10.60;74.89
76766;BME280;65707;52.362;6.588;2023-02-03T05:39:08;102164.47;;;10.59;75.10
76766;BME280;65707;52.362;6.588;2023-02-03T05:41:35;102151.50;;;10.64;75.25
76766;BME280;65707;52.362;6.588;2023-02-03T05:44:19;102158.22;;;10.59;74.76
76766;BME280;65707;52.362;6.588;2023-02-03T05:46:49;102179.19;;;10.65;74.43
76766;BME280;65707;52.362;6.588;2023-02-03T05:49:17;102163.78;;;10.67;74.79
76766;BME280;65707;52.362;6.588;2023-02-03T05:51:45;102149.91;;;10.62;74.35
76766;BME280;65707;52.362;6.588;2023-02-03T05:54:12;102161.63;;;10.61;75.21
76766;BME280;65707;52.362;6.588;2023-02-03T05:56:40;102159.13;;;10.69;74.25
76766;BME280;65707;52.362;6.588;2023-02-03T05:59:07;102148.81;;;10.64;75.09
76766;BME280;65707;52.362;6.588;2023-02-03T06:01:34;102156.84;;;10.64;74.89
76766;BME280;65707;52.362;6.588;2023-02-03T06:04:04;102161.09;;;10.67;74.06
76766;BME280;65707;52.362;6.588;2023-02-03T06:06:31;102141.06;;;10.71;74.51
76766;BME280;65707;52.362;6.588;2023-02-03T06:08:59;102140.88;;;10.63;74.20
76766;BME280;65707;52.362;6.588;2023-02-03T06:11:26;102122.94;;;10.73;74.24
76766;BME280;65707;52.362;6.588;2023-02-03T06:13:54;102138.19;;;10.63;74.84
76766;BME280;65707;52.362;6.588;2023-02-03T06:16:22;102152.06;;;10.68;74.85
76766;BME280;65707;52.362;6.588;2023-02-03T06:18:50;102135.69;;;10.71;74.81
76766;BME280;65707;52.362;6.588;2023-02-03T06:21:18;102148.84;;;10.74;74.30
76766;BME280;65707;52.362;6.588;2023-02-03T06:23:46;102165.66;;;10.76;74.72
76766;BME280;65707;52.362;6.588;2023-02-03T06:26:14;102156.59;;;10.77;74.61
76766;BME280;65707;52.362;6.588;2023-02-03T06:28:40;102169.03;;;10.78;74.61
76766;BME280;65707;52.362;6.588;2023-02-03T06:31:07;102166.50;;;10.76;74.43
76766;BME280;65707;52.362;6.588;2023-02-03T06:33:34;102168.44;;;10.74;74.32
76766;BME280;65707;52.362;6.588;2023-02-03T06:36:01;102161.97;;;10.77;74.30
76766;BME280;65707;52.362;6.588;2023-02-03T06:38:30;102180.34;;;10.81;74.51
76766;BME280;65707;52.362;6.588;2023-02-03T06:40:57;102183.59;;;10.75;74.40
76766;BME280;65707;52.362;6.588;2023-02-03T06:43:24;102171.03;;;10.76;74.71
76766;BME280;65707;52.362;6.588;2023-02-03T06:45:51;102165.66;;;10.76;74.87
76766;BME280;65707;52.362;6.588;2023-02-03T06:48:18;102185.56;;;10.73;75.03
76766;BME280;65707;52.362;6.588;2023-02-03T06:50:45;102179.91;;;10.76;75.17
76766;BME280;65707;52.362;6.588;2023-02-03T06:53:11;102171.03;;;10.76;75.09
76766;BME280;65707;52.362;6.588;2023-02-03T06:55:39;102168.44;;;10.74;74.55
76766;BME280;65707;52.362;6.588;2023-02-03T06:58:06;102179.09;;;10.76;74.80
76766;BME280;65707;52.362;6.588;2023-02-03T07:00:34;102142.00;;;10.60;74.67
76766;BME280;65707;52.362;6.588;2023-02-03T07:03:01;102168.72;;;10.71;75.24
76766;BME280;65707;52.362;6.588;2023-02-03T07:05:28;102169.59;;;10.72;74.90
76766;BME280;65707;52.362;6.588;2023-02-03T07:07:55;102162.53;;;10.71;74.80
76766;BME280;65707;52.362;6.588;2023-02-03T07:10:23;102168.44;;;10.74;75.06
76766;BME280;65707;52.362;6.588;2023-02-03T07:12:51;102170.16;;;10.75;75.58
76766;BME280;65707;52.362;6.588;2023-02-03T07:15:18;102176.75;;;10.62;75.72
76766;BME280;65707;52.362;6.588;2023-02-03T07:17:46;102159.69;;;10.63;75.99
76766;BME280;65707;52.362;6.588;2023-02-03T07:20:19;102179.88;;;10.67;75.51
76766;BME280;65707;52.362;6.588;2023-02-03T07:22:51;102179.06;;;10.66;75.69
76766;BME280;65707;52.362;6.588;2023-02-03T07:25:21;102178.91;;;10.68;75.10
76766;BME280;65707;52.362;6.588;2023-02-03T07:27:50;102169.84;;;10.59;75.31
76766;BME280;65707;52.362;6.588;2023-02-03T07:30:18;102179.19;;;10.74;75.08
76766;BME280;65707;52.362;6.588;2023-02-03T07:32:46;102186.09;;;10.67;75.43
76766;BME280;65707;52.362;6.588;2023-02-03T07:35:14;102188.38;;;10.72;75.67
76766;BME280;65707;52.362;6.588;2023-02-03T07:37:42;102182.47;;;10.78;75.55
76766;BME280;65707;52.362;6.588;2023-02-03T07:40:10;102208.84;;;10.73;75.85
76766;BME280;65707;52.362;6.588;2023-02-03T07:42:40;102212.25;;;10.75;75.47
76766;BME280;65707;52.362;6.588;2023-02-03T07:45:10;102214.22;;;10.63;75.81
76766;BME280;65707;52.362;6.588;2023-02-03T07:47:38;102204.91;;;10.67;75.49
76766;BME280;65707;52.362;6.588;2023-02-03T07:50:06;102210.44;;;10.75;75.38
76766;BME280;65707;52.362;6.588;2023-02-03T07:52:33;102213.56;;;10.80;75.26
76766;BME280;65707;52.362;6.588;2023-02-03T07:55:00;102225.59;;;10.86;75.42
76766;BME280;65707;52.362;6.588;2023-02-03T07:57:27;102210.31;;;10.77;75.07
76766;BME280;65707;52.362;6.588;2023-02-03T07:59:54;102219.34;;;10.76;75.30
76766;BME280;65707;52.362;6.588;2023-02-03T08:02:22;102238.56;;;10.81;75.09
76766;BME280;65707;52.362;6.588;2023-02-03T08:04:49;102229.97;;;10.77;75.53
76766;BME280;65707;52.362;6.588;2023-02-03T08:07:16;102211.41;;;10.74;75.46
76766;BME280;65707;52.362;6.588;2023-02-03T08:09:43;102218.94;;;10.80;75.42
76766;BME280;65707;52.362;6.588;2023-02-03T08:12:09;102221.91;;;10.87;75.41
76766;BME280;65707;52.362;6.588;2023-02-03T08:14:36;102205.38;;;10.82;75.26
76766;BME280;65707;52.362;6.588;2023-02-03T08:17:03;102203.56;;;10.92;74.81
76766;BME280;65707;52.362;6.588;2023-02-03T08:19:31;102224.19;;;10.82;75.45
76766;BME280;65707;52.362;6.588;2023-02-03T08:21:58;102220.22;;;10.86;75.04
76766;BME280;65707;52.362;6.588;2023-02-03T08:24:25;102212.88;;;10.88;75.02
76766;BME280;65707;52.362;6.588;2023-02-03T08:26:51;102211.34;;;10.95;74.77
76766;BME280;65707;52.362;6.588;2023-02-03T08:29:19;102201.41;;;10.86;74.77
76766;BME280;65707;52.362;6.588;2023-02-03T08:31:45;102202.41;;;10.85;75.49
76766;BME280;65707;52.362;6.588;2023-02-03T08:34:12;102206.81;;;10.95;74.89
76766;BME280;65707;52.362;6.588;2023-02-03T08:36:40;102222.53;;;11.00;75.12
76766;BME280;65707;52.362;6.588;2023-02-03T08:39:08;102217.56;;;10.95;74.86
76766;BME280;65707;52.362;6.588;2023-02-03T08:41:35;102215.44;;;10.89;74.87
76766;BME280;65707;52.362;6.588;2023-02-03T08:44:02;102230.69;;;10.89;75.69
76766;BME280;65707;52.362;6.588;2023-02-03T08:46:28;102212.59;;;10.91;75.12
76766;BME280;65707;52.362;6.588;2023-02-03T08:48:55;102231.72;;;10.98;75.03
76766;BME280;65707;52.362;6.588;2023-02-03T08:51:22;102234.81;;;10.93;75.88
76766;BME280;65707;52.362;6.588;2023-02-03T08:53:51;102241.75;;;10.95;75.44
76766;BME280;65707;52.362;6.588;2023-02-03T08:56:18;102237.81;;;11.00;75.52
76766;BME280;65707;52.362;6.588;2023-02-03T08:58:44;102236.66;;;11.02;75.14
76766;BME280;65707;52.362;6.588;2023-02-03T09:01:13;102237.56;;;11.12;75.22
76766;BME280;65707;52.362;6.588;2023-02-03T09:03:40;102227.91;;;11.00;75.51
76766;BME280;65707;52.362;6.588;2023-02-03T09:06:08;102253.38;;;11.06;75.72
76766;BME280;65707;52.362;6.588;2023-02-03T09:08:37;102243.69;;;10.93;75.64
76766;BME280;65707;52.362;6.588;2023-02-03T09:11:08;102220.22;;;10.86;76.56
76766;BME280;65707;52.362;6.588;2023-02-03T09:13:35;102247.06;;;10.86;76.20
76766;BME280;65707;52.362;6.588;2023-02-03T09:16:04;102251.34;;;10.98;76.26
76766;BME280;65707;52.362;6.588;2023-02-03T09:18:31;102252.47;;;10.95;75.92
76766;BME280;65707;52.362;6.588;2023-02-03T09:21:03;102256.72;;;10.98;75.94
76766;BME280;65707;52.362;6.588;2023-02-03T09:23:31;102255.75;;;10.99;76.52
76766;BME280;65707;52.362;6.588;2023-02-03T09:26:00;102243.88;;;11.02;75.75
76766;BME280;65707;52.362;6.588;2023-02-03T09:28:29;102247.97;;;10.96;76.06
76766;BME280;65707;52.362;6.588;2023-02-03T09:30:58;102254.47;;;11.03;76.07
76766;BME280;65707;52.362;6.588;2023-02-03T09:33:26;102261.69;;;11.03;76.00
76766;BME280;65707;52.362;6.588;2023-02-03T09:35:53;102266.94;;;11.04;76.19
76766;BME280;65707;52.362;6.588;2023-02-03T09:38:22;102264.13;;;11.06;75.82
76766;BME280;65707;52.362;6.588;2023-02-03T09:40:55;102278.25;;;11.17;75.62
76766;BME280;65707;52.362;6.588;2023-02-03T09:43:33;102268.94;;;11.12;75.60
76766;BME280;65707;52.362;6.588;2023-02-03T09:46:06;102279.00;;;11.19;75.85
76766;BME280;65707;52.362;6.588;2023-02-03T09:48:41;102279.00;;;11.19;75.37
76766;BME280;65707;52.362;6.588;2023-02-03T09:51:17;102268.97;;;11.21;75.94
76766;BME280;65707;52.362;6.588;2023-02-03T09:53:51;102267.78;;;11.14;75.60
76766;BME280;65707;52.362;6.588;2023-02-03T09:56:26;102295.84;;;11.21;75.85
76766;BME280;65707;52.362;6.588;2023-02-03T09:58:57;102303.72;;;11.13;75.82
76766;BME280;65707;52.362;6.588;2023-02-03T10:01:27;102284.63;;;11.16;76.10
76766;BME280;65707;52.362;6.588;2023-02-03T10:04:02;102291.44;;;11.20;76.43
76766;BME280;65707;52.362;6.588;2023-02-03T10:06:39;102288.72;;;11.20;75.77
76766;BME280;65707;52.362;6.588;2023-02-03T10:09:25;102292.00;;;11.24;75.94
76766;BME280;65707;52.362;6.588;2023-02-03T10:12:24;102295.84;;;11.21;76.11
76766;BME280;65707;52.362;6.588;2023-02-03T10:15:34;102295.56;;;11.24;75.80
76766;BME280;65707;52.362;6.588;2023-02-03T10:18:12;102312.91;;;11.20;76.14
76766;BME280;65707;52.362;6.588;2023-02-03T10:20:46;102307.53;;;11.20;76.05
76766;BME280;65707;52.362;6.588;2023-02-03T10:23:19;102314.94;;;11.28;75.99
76766;BME280;65707;52.362;6.588;2023-02-03T10:25:53;102312.78;;;11.12;76.83
76766;BME280;65707;52.362;6.588;2023-02-03T10:28:22;102317.13;;;11.04;78.19
76766;BME280;65707;52.362;6.588;2023-02-03T10:30:57;102315.19;;;10.85;79.30
76766;BME280;65707;52.362;6.588;2023-02-03T10:33:27;102327.44;;;10.78;79.88
76766;BME280;65707;52.362;6.588;2023-02-03T10:36:02;102336.03;;;10.72;80.22
76766;BME280;65707;52.362;6.588;2023-02-03T10:38:45;102338.22;;;10.57;80.55
76766;BME280;65707;52.362;6.588;2023-02-03T10:41:18;102333.44;;;10.61;80.62
76766;BME280;65707;52.362;6.588;2023-02-03T10:43:48;102339.94;;;10.58;80.48
76766;BME280;65707;52.362;6.588;2023-02-03T10:46:19;102341.88;;;10.56;80.47
76766;BME280;65707;52.362;6.588;2023-02-03T10:48:51;102351.19;;;10.52;81.32
76766;BME280;65707;52.362;6.588;2023-02-03T10:51:23;102347.25;;;10.56;80.96
76766;BME280;65707;52.362;6.588;2023-02-03T10:53:51;102358.38;;;10.52;80.62
76766;BME280;65707;52.362;6.588;2023-02-03T10:56:21;102364.47;;;10.54;80.92
76766;BME280;65707;52.362;6.588;2023-02-03T10:58:53;102363.75;;;10.52;81.22
76766;BME280;65707;52.362;6.588;2023-02-03T11:01:26;102370.22;;;10.49;80.68
76766;BME280;65707;52.362;6.588;2023-02-03T11:03:56;102364.47;;;10.54;80.79
76766;BME280;65707;52.362;6.588;2023-02-03T11:06:25;102372.13;;;10.58;81.01
76766;BME280;65707;52.362;6.588;2023-02-03T11:08:53;102374.63;;;10.50;81.35
76766;BME280;65707;52.362;6.588;2023-02-03T11:11:23;102383.91;;;10.46;80.95
76766;BME280;65707;52.362;6.588;2023-02-03T11:13:53;102379.66;;;10.44;81.18
76766;BME280;65707;52.362;6.588;2023-02-03T11:16:23;102376.19;;;10.53;81.45
76766;BME280;65707;52.362;6.588;2023-02-03T11:18:56;102368.66;;;10.47;81.59
76766;BME280;65707;52.362;6.588;2023-02-03T11:21:28;102364.97;;;10.48;80.88
76766;BME280;65707;52.362;6.588;2023-02-03T11:24:02;102363.94;;;10.60;81.19
76766;BME280;65707;52.362;6.588;2023-02-03T11:26:34;102370.16;;;10.60;79.96
76766;BME280;65707;52.362;6.588;2023-02-03T11:29:06;102361.97;;;10.62;80.03
76766;BME280;65707;52.362;6.588;2023-02-03T11:31:46;102380.00;;;10.71;79.44
76766;BME280;65707;52.362;6.588;2023-02-03T11:34:16;102384.50;;;10.70;79.46
76766;BME280;65707;52.362;6.588;2023-02-03T11:36:48;102370.41;;;10.78;78.87
76766;BME280;65707;52.362;6.588;2023-02-03T11:39:22;102390.06;;;10.78;78.53
76766;BME280;65707;52.362;6.588;2023-02-03T11:41:52;102398.84;;;10.80;78.61
76766;BME280;65707;52.362;6.588;2023-02-03T11:44:22;102390.97;;;10.88;78.27
76766;BME280;65707;52.362;6.588;2023-02-03T11:46:57;102389.59;;;10.94;77.46
76766;BME280;65707;52.362;6.588;2023-02-03T11:50:02;102404.28;;;10.90;77.63
76766;BME280;65707;52.362;6.588;2023-02-03T11:53:09;102398.63;;;10.93;77.13
76766;BME280;65707;52.362;6.588;2023-02-03T11:55:55;102404.72;;;10.95;77.04
76766;BME280;65707;52.362;6.588;2023-02-03T12:05:09;102400.06;;;10.97;74.93
76766;BME280;65707;52.362;6.588;2023-02-03T12:07:56;102407.19;;;11.08;75.00
76766;BME280;65707;52.362;6.588;2023-02-03T12:10:45;102399.56;;;11.13;74.44
76766;BME280;65707;52.362;6.588;2023-02-03T12:13:33;102415.47;;;11.25;73.68
76766;BME280;65707;52.362;6.588;2023-02-03T12:16:23;102422.13;;;11.21;73.47
76766;BME280;65707;52.362;6.588;2023-02-03T12:19:13;102440.38;;;11.27;73.79
76766;BME280;65707;52.362;6.588;2023-02-03T12:21:56;102433.59;;;11.23;74.03
76766;BME280;65707;52.362;6.588;2023-02-03T12:24:33;102431.59;;;11.25;73.53
76766;BME280;65707;52.362;6.588;2023-02-03T12:27:20;102435.28;;;11.24;73.38
76766;BME280;65707;52.362;6.588;2023-02-03T12:30:02;102438.63;;;11.17;73.76
76766;BME280;65707;52.362;6.588;2023-02-03T12:32:41;102445.84;;;11.16;73.35
76766;BME280;65707;52.362;6.588;2023-02-03T12:35:17;102436.44;;;11.01;73.95
76766;BME280;65707;52.362;6.588;2023-02-03T12:37:55;102455.59;;;11.17;74.21
76766;BME280;65707;52.362;6.588;2023-02-03T12:40:34;102453.91;;;11.16;73.65
76766;BME280;65707;52.362;6.588;2023-02-03T12:43:24;102453.31;;;11.13;74.05
76766;BME280;65707;52.362;6.588;2023-02-03T12:46:04;102451.28;;;11.05;73.25
76766;BME280;65707;52.362;6.588;2023-02-03T12:48:44;102446.72;;;10.96;73.85
76766;BME280;65707;52.362;6.588;2023-02-03T12:51:25;102444.03;;;10.96;73.87
76766;BME280;65707;52.362;6.588;2023-02-03T12:54:04;102446.72;;;10.96;73.86
76766;BME280;65707;52.362;6.588;2023-02-03T12:56:44;102444.38;;;10.82;74.39
76766;BME280;65707;52.362;6.588;2023-02-03T12:59:20;102439.81;;;10.82;73.75
76766;BME280;65707;52.362;6.588;2023-02-03T13:01:53;102438.13;;;10.81;73.74
76766;BME280;65707;52.362;6.588;2023-02-03T13:04:29;102448.66;;;10.73;74.33
76766;BME280;65707;52.362;6.588;2023-02-03T13:07:06;102446.44;;;10.78;73.63
76766;BME280;65707;52.362;6.588;2023-02-03T13:09:46;102449.41;;;10.75;73.90
76766;BME280;65707;52.362;6.588;2023-02-03T13:12:26;102435.25;;;10.73;73.42
76766;BME280;65707;52.362;6.588;2023-02-03T13:15:03;102437.47;;;10.68;72.91
76766;BME280;65707;52.362;6.588;2023-02-03T13:17:47;102451.16;;;10.65;72.58
76766;BME280;65707;52.362;6.588;2023-02-03T13:20:22;102440.06;;;10.59;72.67
76766;BME280;65707;52.362;6.588;2023-02-03T13:22:51;102439.38;;;10.57;73.52
76766;BME280;65707;52.362;6.588;2023-02-03T13:25:22;102452.28;;;10.63;72.67